Time;durP1;ratioP1;P1;durP2;ratioP2;P2;SDS_P1;SDS_P2;PMS_P1;PMS_P2;Temp;Humidity;BMP_temperature;BMP_pressure;BME280_temperature;BME280_humidity;BME280_pressure;Samples;Min_cycle;Max_cycle;Signal;HPM_P1;HPM_P2
2022/08/06 00:01:45;;;;;;;12.97;9.03;;;;;;;22.30;62.96;98670.78;5073744;28;20168;-91
2022/08/06 00:04:10;;;;;;;11.47;9.70;;;;;;;23.24;63.20;98849.22;5072316;28;20168;-91
2022/08/06 00:06:36;;;;;;;14.60;9.77;;;;;;;22.72;63.59;98743.28;5073580;28;20321;-91
2022/08/06 00:09:01;;;;;;;10.63;9.10;;;;;;;23.90;63.26;98948.91;5090735;28;20649;-90
2022/08/06 00:11:27;;;;;;;12.40;9.17;;;;;;;22.07;63.58;98625.59;5093080;28;20160;-91
2022/08/06 00:13:52;;;;;;;13.73;9.20;;;;;;;23.91;63.59;98936.81;5093201;28;20175;-90
2022/08/06 00:16:18;;;;;;;17.30;9.33;;;;;;;23.42;63.43;98843.75;5092435;28;20227;-91
2022/08/06 00:18:43;;;;;;;11.07;9.30;;;;;;;23.17;63.57;98793.34;5091461;28;20176;-88
2022/08/06 00:21:08;;;;;;;13.27;9.30;;;;;;;24.16;63.16;98937.28;5093239;28;20765;-90
2022/08/06 00:23:34;;;;;;;22.80;13.93;;;;;;;23.21;63.27;98787.25;5093230;28;20185;-89
2022/08/06 00:25:59;;;;;;;22.27;13.37;;;;;;;23.69;63.36;98863.97;5092735;28;20171;-91
2022/08/06 00:28:25;;;;;;;23.07;13.20;;;;;;;23.34;62.95;98810.28;5091830;28;20186;-90
2022/08/06 00:30:51;;;;;;;21.80;13.13;;;;;;;22.41;63.11;98675.81;5092408;28;20271;-90
2022/08/06 00:33:16;;;;;;;22.60;15.20;;;;;;;22.25;63.64;98662.28;5109451;28;20172;-91
2022/08/06 00:35:43;;;;;;;26.93;15.20;;;;;;;23.98;64.26;98931.50;5093188;28;20220;-91
2022/08/06 00:38:08;;;;;;;18.23;12.97;;;;;;;23.01;65.46;98784.13;5093461;28;20164;-90
2022/08/06 00:40:35;;;;;;;22.47;13.90;;;;;;;23.90;65.67;98946.31;5092750;28;20203;-89
2022/08/06 00:43:03;;;;;;;19.97;13.37;;;;;;;23.81;66.38;98935.28;5093513;28;20185;-92
2022/08/06 00:45:32;;;;;;;16.27;12.17;;;;;;;22.63;66.74;98736.56;5093151;28;20168;-89
2022/08/06 00:47:59;;;;;;;22.33;12.70;;;;;;;22.21;66.90;98672.66;5091883;28;20538;-90
2022/08/06 00:50:24;;;;;;;17.17;12.73;;;;;;;23.29;66.71;98837.06;5077343;28;20196;-88
2022/08/06 00:52:50;;;;;;;28.83;17.13;;;;;;;23.60;66.47;98895.13;5071770;28;20176;-89
2022/08/06 00:55:16;;;;;;;32.03;17.43;;;;;;;22.08;67.02;98647.94;5072866;28;20175;-91
2022/08/06 00:57:41;;;;;;;38.10;19.97;;;;;;;22.95;66.62;98768.75;5073505;28;20157;-90
2022/08/06 01:00:07;;;;;;;14.90;10.70;;;;;;;23.06;66.13;98787.50;5075070;28;20183;-90
2022/08/06 01:02:33;;;;;;;11.17;9.90;;;;;;;23.68;67.32;98939.78;5076347;28;20868;-90
2022/08/06 01:04:59;;;;;;;12.43;9.97;;;;;;;22.30;69.07;98757.66;5076649;28;20197;-91
2022/08/06 01:07:24;;;;;;;12.53;10.03;;;;;;;23.09;71.38;98947.56;5077083;28;20192;-88
2022/08/06 01:09:50;;;;;;;14.90;9.83;;;;;;;22.34;71.04;98796.25;5084419;28;20180;-91
2022/08/06 01:12:16;;;;;;;14.43;10.13;;;;;;;22.55;71.37;98831.22;5097666;28;20227;-91
2022/08/06 01:14:42;;;;;;;13.77;9.83;;;;;;;21.76;70.63;98693.00;5097204;28;20596;-91
2022/08/06 01:17:21;;;;;;;14.80;9.80;;;;;;;23.29;70.46;98930.88;5095264;28;20264;-91
2022/08/06 01:19:58;;;;;;;13.10;9.87;;;;;;;21.04;69.67;98567.66;5095095;28;20900;-91
2022/08/06 01:22:26;;;;;;;11.90;9.67;;;;;;;23.28;69.55;98928.34;5097370;28;20826;-91
2022/08/06 01:25:26;;;;;;;12.80;9.60;;;;;;;21.41;70.26;98632.47;5099005;28;20168;-91
2022/08/06 01:27:58;;;;;;;12.17;9.40;;;;;;;22.94;70.36;98901.31;5099140;28;20172;-89
2022/08/06 01:30:30;;;;;;;14.47;9.40;;;;;;;20.49;69.71;98485.91;5099774;28;20187;-90
2022/08/06 01:33:08;;;;;;;23.13;13.43;;;;;;;21.53;72.18;98676.97;5096848;28;20251;-91
2022/08/06 01:35:38;;;;;;;25.57;16.00;;;;;;;22.23;72.76;98802.44;5096086;28;20906;-91
2022/08/06 01:38:08;;;;;;;23.77;14.20;;;;;;;22.27;74.37;98850.53;5094581;28;20248;-91
2022/08/06 01:40:37;;;;;;;18.17;13.20;;;;;;;22.41;74.01;98884.75;5093849;28;20608;-91
2022/08/06 01:43:06;;;;;;;14.43;11.10;;;;;;;20.87;74.05;98626.16;5096672;28;20607;-91
2022/08/06 01:45:35;;;;;;;12.83;10.83;;;;;;;22.63;75.41;98919.78;5096160;28;20175;-91
2022/08/06 01:48:04;;;;;;;14.10;10.90;;;;;;;20.94;76.59;98666.41;5096120;28;20197;-92
2022/08/06 01:50:37;;;;;;;16.23;10.50;;;;;;;21.23;78.60;98788.03;5094056;28;20184;-91
2022/08/06 01:53:05;;;;;;;13.43;10.00;;;;;;;21.63;77.28;98819.41;5094486;28;20708;-89
2022/08/06 01:55:34;;;;;;;14.60;10.53;;;;;;;22.37;76.21;98920.91;5096018;28;20191;-90
2022/08/06 01:58:04;;;;;;;16.10;10.80;;;;;;;21.24;75.84;98740.78;5095716;28;20168;-88
2022/08/06 02:00:30;;;;;;;14.57;11.03;;;;;;;22.30;75.53;98917.56;5094615;28;20168;-91
2022/08/06 02:02:59;;;;;;;14.73;11.33;;;;;;;18.74;74.16;98274.28;5095101;28;20168;-91
2022/08/06 02:05:27;;;;;;;16.63;11.30;;;;;;;19.45;72.98;98370.44;5095344;28;20867;-91
2022/08/06 02:07:55;;;;;;;14.30;11.33;;;;;;;20.37;72.30;98524.63;5095950;28;20199;-92
2022/08/06 02:10:22;;;;;;;16.07;10.87;;;;;;;22.67;71.93;98908.53;5090836;28;20173;-91
2022/08/06 02:12:48;;;;;;;15.67;10.67;;;;;;;22.39;73.61;98924.34;5075714;28;20157;-91
2022/08/06 02:15:26;;;;;;;12.57;10.13;;;;;;;20.13;75.54;98594.22;5075592;28;20694;-90
2022/08/06 02:17:56;;;;;;;13.97;10.63;;;;;;;21.97;77.29;98923.06;5074188;28;20180;-90
2022/08/06 02:20:34;;;;;;;13.73;10.30;;;;;;;21.16;77.88;98787.22;5073853;28;20172;-91
2022/08/06 02:23:02;;;;;;;15.33;10.40;;;;;;;20.22;78.07;98594.13;5074549;28;20180;-90
2022/08/06 02:25:31;;;;;;;12.43;10.63;;;;;;;22.30;77.37;98923.53;5074802;28;20176;-90
2022/08/06 02:27:59;;;;;;;18.77;10.47;;;;;;;22.15;77.51;98915.13;5073668;28;20165;-90
2022/08/06 02:30:27;;;;;;;12.83;10.73;;;;;;;22.14;77.47;98910.84;5074725;28;20176;-90
2022/08/06 02:32:53;;;;;;;14.43;10.80;;;;;;;20.83;76.33;98687.09;5076261;28;20206;-88
2022/08/06 02:35:18;;;;;;;13.30;10.50;;;;;;;20.44;75.72;98611.13;5091441;28;20911;-90
2022/08/06 02:38:00;;;;;;;13.93;10.30;;;;;;;21.96;75.26;98842.28;5075979;28;20175;-90
2022/08/06 02:40:42;;;;;;;14.23;10.37;;;;;;;22.23;75.53;98915.88;5074684;28;20161;-89
2022/08/06 02:43:15;;;;;;;13.93;10.60;;;;;;;21.72;75.12;98845.94;5073928;28;20183;-90
2022/08/06 02:45:45;;;;;;;12.83;9.93;;;;;;;22.05;76.33;98911.78;5074638;28;20176;-91
2022/08/06 02:48:18;;;;;;;17.10;10.60;;;;;;;20.44;76.63;98634.25;5075224;28;20173;-89
2022/08/06 02:50:46;;;;;;;14.43;10.50;;;;;;;22.20;75.91;98916.78;5072846;28;20176;-90
2022/08/06 02:53:35;;;;;;;14.53;11.17;;;;;;;21.90;76.03;98865.53;5073429;28;20177;-91
2022/08/06 02:56:08;;;;;;;14.53;11.67;;;;;;;21.28;76.95;98813.72;5073326;28;20802;-91
2022/08/06 02:58:44;;;;;;;15.27;10.80;;;;;;;21.13;76.33;98770.94;5074607;28;20169;-89
2022/08/06 03:01:13;;;;;;;14.70;11.17;;;;;;;21.94;75.38;98868.94;5073612;28;20180;-90
2022/08/06 03:03:42;;;;;;;15.80;11.43;;;;;;;22.23;74.27;98910.72;5077678;28;20261;-91
2022/08/06 03:06:09;;;;;;;16.90;11.20;;;;;;;20.45;75.45;98651.41;5075083;28;20176;-91
2022/08/06 03:08:35;;;;;;;13.73;11.53;;;;;;;21.33;76.60;98854.00;5073753;28;20196;-91
2022/08/06 03:11:02;;;;;;;15.47;11.70;;;;;;;21.63;77.51;98907.00;5073438;28;20177;-91
2022/08/06 03:13:29;;;;;;;14.47;11.70;;;;;;;19.82;78.21;98650.06;5075177;28;20168;-92
2022/08/06 03:15:58;;;;;;;14.07;11.80;;;;;;;20.11;78.48;98695.31;5073439;28;20204;-91
2022/08/06 03:18:24;;;;;;;15.17;11.80;;;;;;;19.71;77.54;98591.91;5074926;28;20173;-91
2022/08/06 03:20:51;;;;;;;17.43;11.30;;;;;;;21.46;77.68;98914.84;5073635;28;20183;-92
2022/08/06 03:23:17;;;;;;;15.80;11.97;;;;;;;17.32;77.89;98256.88;5075693;28;20165;-91
2022/08/06 03:25:44;;;;;;;14.93;11.53;;;;;;;19.87;79.15;98719.41;5074464;28;20600;-91
2022/08/06 03:28:12;;;;;;;13.97;11.47;;;;;;;19.19;79.55;98615.22;5073196;28;20238;-91
2022/08/06 03:30:39;;;;;;;15.37;11.63;;;;;;;19.99;81.49;98779.31;5072780;28;20199;-91
2022/08/06 03:33:08;;;;;;;14.23;11.97;;;;;;;20.89;81.17;98916.06;5088960;28;20268;-91
2022/08/06 03:35:35;;;;;;;16.60;11.70;;;;;;;20.28;79.68;98771.50;5094509;28;20235;-89
2022/08/06 03:38:01;;;;;;;12.30;11.00;;;;;;;21.22;79.31;98915.03;5094392;28;20604;-90
2022/08/06 03:40:29;;;;;;;13.07;11.20;;;;;;;19.86;78.32;98664.59;5092951;28;20249;-87
2022/08/06 03:42:55;;;;;;;12.60;10.53;;;;;;;19.60;77.73;98614.22;5094017;28;20183;-91
2022/08/06 03:45:20;;;;;;;12.87;10.77;;;;;;;21.48;77.40;98904.56;5094900;28;20624;-90
2022/08/06 03:47:54;;;;;;;12.93;11.03;;;;;;;21.30;78.64;98923.56;5096354;28;20250;-90
2022/08/06 03:50:30;;;;;;;12.37;10.80;;;;;;;20.73;79.16;98859.53;5093110;28;20210;-91
2022/08/06 03:52:59;;;;;;;14.77;11.30;;;;;;;20.20;79.98;98772.34;5093713;28;20235;-92
2022/08/06 03:55:30;;;;;;;16.63;11.00;;;;;;;20.96;80.45;98927.16;5093965;28;20187;-92
2022/08/06 03:58:01;;;;;;;13.47;10.83;;;;;;;19.70;81.30;98719.47;5094977;28;20167;-91
2022/08/06 04:00:33;;;;;;;13.67;11.23;;;;;;;20.94;81.62;98921.19;5094083;28;20160;-91
2022/08/06 04:02:59;;;;;;;13.60;10.57;;;;;;;18.96;82.60;98604.16;5085216;28;20165;-90
2022/08/06 04:05:27;;;;;;;13.37;11.17;;;;;;;19.10;82.91;98633.19;5072604;28;20711;-91
2022/08/06 04:07:56;;;;;;;13.90;11.40;;;;;;;18.37;82.80;98514.53;5072252;28;20188;-91
2022/08/06 04:10:28;;;;;;;13.30;11.20;;;;;;;20.62;83.19;98912.75;5073457;28;20226;-90
2022/08/06 04:12:54;;;;;;;14.73;11.90;;;;;;;18.86;82.61;98594.78;5073510;28;20240;-89
2022/08/06 04:15:20;;;;;;;13.63;11.47;;;;;;;18.78;80.44;98533.25;5073851;28;20191;-91
2022/08/06 04:17:47;;;;;;;14.23;10.87;;;;;;;21.13;80.27;98926.25;5072516;28;20680;-91
2022/08/06 04:20:17;;;;;;;15.37;11.40;;;;;;;19.45;79.17;98663.91;5074126;28;20164;-89
2022/08/06 04:22:43;;;;;;;16.90;11.70;;;;;;;20.08;78.30;98719.28;5073200;28;20731;-90
2022/08/06 04:25:10;;;;;;;16.03;11.70;;;;;;;21.43;78.53;98942.34;5074018;28;20207;-91
2022/08/06 04:27:38;;;;;;;16.90;12.20;;;;;;;20.06;77.63;98705.59;5073347;28;20179;-89
2022/08/06 04:30:05;;;;;;;13.13;11.43;;;;;;;20.85;79.18;98852.59;5073886;28;20267;-91
2022/08/06 04:32:31;;;;;;;20.57;12.67;;;;;;;21.26;80.44;98946.78;5073619;28;20184;-92
2022/08/06 04:34:59;;;;;;;17.90;12.27;;;;;;;19.16;82.14;98617.78;5077983;28;20193;-90
2022/08/06 04:37:25;;;;;;;17.27;12.70;;;;;;;21.18;81.54;98928.78;5077323;28;20215;-90
2022/08/06 04:39:51;;;;;;;17.83;12.57;;;;;;;19.48;80.91;98625.41;5075657;28;20181;-91
2022/08/06 04:42:17;;;;;;;14.87;11.97;;;;;;;19.89;80.82;98692.84;5078197;28;20633;-90
2022/08/06 04:44:43;;;;;;;14.13;11.37;;;;;;;19.67;80.08;98641.56;5097979;28;20175;-91
2022/08/06 04:47:10;;;;;;;14.37;11.30;;;;;;;19.38;81.44;98611.75;5113674;28;20255;-91
2022/08/06 04:49:35;;;;;;;15.03;10.60;;;;;;;20.31;83.52;98802.31;5096458;28;20184;-92
2022/08/06 04:52:01;;;;;;;13.30;10.40;;;;;;;20.30;83.09;98774.06;5097917;28;20196;-91
2022/08/06 04:54:26;;;;;;;12.70;10.60;;;;;;;19.26;83.27;98592.94;5097240;28;20220;-90
2022/08/06 04:56:51;;;;;;;13.27;11.10;;;;;;;20.44;81.37;98719.09;5097306;28;20294;-90
2022/08/06 04:59:17;;;;;;;17.03;10.73;;;;;;;21.05;78.73;98757.25;5098485;28;20164;-92
2022/08/06 05:01:42;;;;;;;14.63;10.73;;;;;;;21.14;76.65;98726.31;5096254;28;20171;-92
2022/08/06 05:04:08;;;;;;;32.17;18.97;;;;;;;22.75;75.19;98940.25;5097286;28;20176;-92
2022/08/06 05:06:36;;;;;;;31.67;18.30;;;;;;;23.15;72.26;98947.47;5097076;28;20173;-90
2022/08/06 05:09:06;;;;;;;26.70;16.73;;;;;;;23.44;70.67;98942.75;5100868;28;20197;-90
2022/08/06 05:11:45;;;;;;;22.53;14.07;;;;;;;21.88;70.48;98699.75;5097395;28;20206;-91
2022/08/06 05:14:16;;;;;;;16.50;11.20;;;;;;;23.09;70.73;98965.63;5100319;28;20242;-89
2022/08/06 05:16:45;;;;;;;16.07;11.70;;;;;;;20.65;69.09;98493.50;5099819;28;20282;-91
2022/08/06 05:19:32;;;;;;;18.73;12.60;;;;;;;22.98;68.75;98835.81;5112515;28;20604;-91
2022/08/06 05:22:00;;;;;;;17.17;13.03;;;;;;;22.78;69.52;98864.50;5096490;28;20206;-92
2022/08/06 05:24:27;;;;;;;16.83;11.50;;;;;;;21.80;68.61;98618.22;5101670;28;20237;-91
2022/08/06 05:26:53;;;;;;;16.87;10.43;;;;;;;23.97;67.35;98952.25;5102088;28;20174;-88
2022/08/06 05:29:20;;;;;;;14.13;10.87;;;;;;;24.02;65.29;98873.69;5080610;28;20238;-91
2022/08/06 05:31:46;;;;;;;14.97;10.13;;;;;;;23.40;63.41;98686.16;5080312;28;20160;-92
2022/08/06 05:34:12;;;;;;;16.23;12.23;;;;;;;24.56;62.17;98829.50;5077695;28;20168;-90
2022/08/06 05:36:38;;;;;;;13.97;11.10;;;;;;;25.55;60.49;98940.41;5075546;28;20243;-91
2022/08/06 05:39:04;;;;;;;13.20;9.73;;;;;;;23.14;60.16;98558.38;5075498;28;20169;-91
2022/08/06 05:41:29;;;;;;;11.20;9.07;;;;;;;24.90;59.91;98833.09;5075326;28;20248;-90
2022/08/06 05:43:56;;;;;;;12.60;8.97;;;;;;;25.11;60.01;98876.63;5074590;28;20180;-93
2022/08/06 05:46:23;;;;;;;15.67;9.30;;;;;;;25.49;60.78;98945.72;5077425;28;20196;-91
2022/08/06 05:49:38;;;;;;;15.20;10.67;;;;;;;25.47;58.94;98884.44;5079076;28;20226;-90
2022/08/06 05:52:13;;;;;;;14.97;12.13;;;;;;;25.98;58.70;98945.41;5011164;28;20198;-91
2022/08/06 05:54:50;;;;;;;13.03;10.93;;;;;;;25.24;58.37;98794.28;5019131;28;20182;-92
2022/08/06 05:57:24;;;;;;;11.23;9.63;;;;;;;23.96;57.65;98560.91;5015016;28;20221;-91
2022/08/06 05:59:56;;;;;;;12.03;9.30;;;;;;;26.25;56.84;98923.94;5014492;28;20658;-90
2022/08/06 06:02:23;;;;;;;11.67;8.73;;;;;;;24.95;56.88;98727.66;5014137;28;20258;-90
2022/08/06 06:04:49;;;;;;;12.00;8.90;;;;;;;24.46;58.13;98714.13;4998925;28;20262;-92
2022/08/06 06:07:15;;;;;;;10.63;8.50;;;;;;;24.51;58.00;98759.72;5014415;28;20179;-92
2022/08/06 06:09:42;;;;;;;11.40;8.47;;;;;;;24.67;56.99;98777.50;5013889;28;20230;-92
2022/08/06 06:12:09;;;;;;;10.77;8.57;;;;;;;24.41;57.21;98695.28;4999297;28;20248;-91
2022/08/06 06:14:39;;;;;;;13.83;9.43;;;;;;;25.98;57.21;98935.03;5013727;28;20702;-90
2022/08/06 06:17:23;;;;;;;12.33;9.33;;;;;;;26.17;56.49;98940.63;4998977;28;20213;-90
2022/08/06 06:20:14;;;;;;;11.37;8.90;;;;;;;26.79;54.49;98934.56;5014479;28;20186;-92
2022/08/06 06:22:47;;;;;;;9.63;8.63;;;;;;;25.70;54.10;98726.56;5014360;28;20190;-93
2022/08/06 06:25:21;;;;;;;12.20;9.20;;;;;;;26.77;54.53;98930.28;5013864;28;20175;-91
2022/08/06 06:27:54;;;;;;;10.88;9.23;;;;;;;26.72;53.24;98846.44;5023067;28;20193;-91
2022/08/06 06:30:48;;;;;;;17.83;10.23;;;;;;;27.47;52.59;98935.09;5055881;28;20163;-91
2022/08/06 06:33:36;;;;;;;11.43;9.00;;;;;;;27.80;52.05;98925.31;5004997;28;20261;-90
2022/08/06 06:36:10;;;;;;;13.90;10.38;;;;;;;27.19;52.15;98832.00;5017597;28;20229;-91
2022/08/06 06:38:47;;;;;;;15.63;11.85;;;;;;;27.67;52.42;98899.78;5029157;28;20658;-88
2022/08/06 06:41:27;;;;;;;14.88;9.65;;;;;;;26.90;52.09;98723.78;5018671;28;20268;-91
2022/08/06 06:44:31;;;;;;;10.30;9.15;;;;;;;28.45;51.64;98925.69;5023009;28;20189;-88
2022/08/06 06:47:06;;;;;;;15.60;9.80;;;;;;;27.17;52.66;98780.06;5033424;28;20265;-88
2022/08/06 06:49:39;;;;;;;10.50;8.80;;;;;;;25.98;54.13;98734.41;5033588;28;20575;-89
2022/08/06 06:52:19;;;;;;;10.13;9.07;;;;;;;27.19;53.47;98879.66;5018105;28;20180;-91
2022/08/06 06:54:50;;;;;;;10.65;9.55;;;;;;;27.37;53.82;98904.19;5018032;28;20595;-92
2022/08/06 06:57:20;;;;;;;10.63;9.20;;;;;;;25.89;52.84;98630.91;5032117;28;20254;-92
2022/08/06 06:59:50;;;;;;;10.32;9.23;;;;;;;26.61;52.84;98734.25;5016315;28;20173;-91
2022/08/06 07:02:19;;;;;;;10.98;9.13;;;;;;;26.85;52.11;98710.97;5018974;28;20171;-91
2022/08/06 07:04:47;;;;;;;10.20;9.15;;;;;;;27.34;51.45;98743.09;5016669;28;20221;-90
2022/08/06 07:07:13;;;;;;;10.63;9.15;;;;;;;28.14;52.64;98899.03;5017025;28;20179;-91
2022/08/06 07:09:40;;;;;;;11.77;9.25;;;;;;;28.25;52.49;98901.25;5037798;28;20696;-90
2022/08/06 07:12:08;;;;;;;11.32;9.15;;;;;;;28.59;50.75;98899.16;5097161;28;20176;-90
2022/08/06 07:14:35;;;;;;;11.45;9.23;;;;;;;25.94;51.98;98495.00;5096322;28;20172;-92
2022/08/06 07:17:04;;;;;;;12.30;9.48;;;;;;;28.22;51.68;98890.94;5094274;28;20209;-93
2022/08/06 07:19:30;;;;;;;12.38;9.57;;;;;;;26.77;50.85;98595.19;5078211;28;20182;-91
2022/08/06 07:21:58;;;;;;;11.18;9.40;;;;;;;29.09;49.94;98905.06;5075647;28;20169;-92
2022/08/06 07:24:26;;;;;;;10.98;9.63;;;;;;;27.95;49.98;98720.97;5074016;28;20212;-93
2022/08/06 07:26:54;;;;;;;13.48;9.77;;;;;;;25.79;50.83;98389.19;5090949;28;20171;-91
2022/08/06 07:29:20;;;;;;;13.35;9.75;;;;;;;28.17;49.47;98685.47;5074853;28;20183;-90
2022/08/06 07:31:47;;;;;;;12.02;10.80;;;;;;;27.13;48.83;98487.38;5076209;28;20158;-92
2022/08/06 07:34:14;;;;;;;13.00;10.65;;;;;;;29.27;47.49;98771.38;5074973;28;20185;-92
2022/08/06 07:36:47;;;;;;;14.95;11.98;;;;;;;28.96;46.62;98627.53;5073181;28;20221;-90
2022/08/06 07:39:17;;;;;;;13.38;10.45;;;;;;;30.68;46.09;98893.13;5072768;28;20635;-90
2022/08/06 07:41:45;;;;;;;11.23;10.02;;;;;;;29.97;46.07;98802.31;5074171;28;20172;-92
2022/08/06 07:44:12;;;;;;;11.00;9.68;;;;;;;28.74;47.04;98681.47;5073349;28;20179;-91
2022/08/06 07:46:43;;;;;;;11.07;9.50;;;;;;;30.30;46.75;98892.19;5073242;28;20661;-90
2022/08/06 07:49:11;;;;;;;13.10;9.60;;;;;;;29.54;46.00;98710.19;5084472;28;20207;-91
2022/08/06 07:51:40;;;;;;;11.07;9.98;;;;;;;30.42;46.26;98906.50;5093321;28;20182;-91
2022/08/06 07:54:08;;;;;;;13.00;10.48;;;;;;;28.90;46.29;98586.94;5094840;28;20193;-91
2022/08/06 07:56:36;;;;;;;11.05;9.85;;;;;;;30.32;46.33;98887.75;5093515;28;20203;-92
2022/08/06 07:59:03;;;;;;;10.93;9.82;;;;;;;28.23;46.62;98510.81;5092533;28;20169;-91
2022/08/06 08:01:29;;;;;;;13.25;9.63;;;;;;;30.55;45.47;98850.16;5092992;28;20203;-92
2022/08/06 08:06:40;;;;;;;11.52;10.38;;;;;;;29.88;45.75;98659.13;5094431;28;20224;-92
2022/08/06 08:09:09;;;;;;;11.57;10.38;;;;;;;30.34;44.73;98669.09;5109581;28;20571;-92
2022/08/06 08:11:40;;;;;;;18.95;14.95;;;;;;;29.59;45.13;98608.22;5092313;28;20170;-91
2022/08/06 08:14:07;;;;;;;14.05;10.98;;;;;;;31.35;44.91;98893.44;5093093;28;20167;-91
2022/08/06 08:16:33;;;;;;;10.93;9.57;;;;;;;29.87;42.53;98611.28;5092758;28;20205;-90
2022/08/06 08:18:59;;;;;;;10.73;9.43;;;;;;;30.12;42.28;98512.59;5093256;28;20282;-93
2022/08/06 08:21:26;;;;;;;12.82;10.88;;;;;;;31.45;42.02;98651.31;5096770;28;20170;-91
2022/08/06 08:23:52;;;;;;;13.95;10.20;;;;;;;32.89;42.01;98887.19;5093697;28;20197;-91
2022/08/06 08:26:17;;;;;;;13.35;10.57;;;;;;;29.81;42.28;98450.59;5092094;28;20896;-91
2022/08/06 08:28:42;;;;;;;10.68;9.15;;;;;;;29.89;42.41;98499.81;5092072;28;20262;-91
2022/08/06 08:31:08;;;;;;;10.80;9.43;;;;;;;31.23;41.12;98616.75;5093622;28;20259;-91
2022/08/06 08:33:34;;;;;;;10.50;9.27;;;;;;;30.33;42.13;98528.97;5092848;28;20207;-92
2022/08/06 08:36:00;;;;;;;13.85;10.30;;;;;;;32.38;42.43;98867.25;5092563;28;20742;-91
2022/08/06 08:38:30;;;;;;;11.52;9.20;;;;;;;32.68;40.52;98773.88;5092760;28;20234;-91
2022/08/06 08:41:00;;;;;;;9.70;8.70;;;;;;;31.59;39.72;98564.25;5093346;28;20686;-92
2022/08/06 08:43:31;;;;;;;9.80;8.80;;;;;;;33.30;39.88;98856.91;5093604;28;20179;-91
2022/08/06 08:45:57;;;;;;;9.60;8.15;;;;;;;32.51;38.55;98729.34;5093841;28;20218;-93
2022/08/06 08:48:29;;;;;;;10.32;8.27;;;;;;;32.85;38.89;98689.84;5094285;28;20164;-91
2022/08/06 08:50:58;;;;;;;9.50;7.65;;;;;;;33.46;36.83;98799.13;5093184;28;20167;-91
2022/08/06 08:53:37;;;;;;;8.85;7.03;;;;;;;31.72;36.58;98539.09;5092179;28;20263;-92
2022/08/06 08:56:04;;;;;;;8.00;6.88;;;;;;;32.40;36.07;98608.56;5093894;28;20196;-91
2022/08/06 08:58:31;;;;;;;8.88;6.70;;;;;;;34.21;36.05;98847.09;5094551;28;20176;-90
2022/08/06 09:00:58;;;;;;;9.48;6.97;;;;;;;32.81;36.18;98562.44;5103359;28;20203;-91
2022/08/06 09:03:24;;;;;;;8.23;7.43;;;;;;;33.96;35.39;98668.22;5096971;28;20221;-91
2022/08/06 09:05:49;;;;;;;7.75;6.68;;;;;;;33.39;34.33;98649.00;5092895;28;20176;-90
2022/08/06 09:08:16;;;;;;;8.23;6.95;;;;;;;34.34;34.95;98858.56;5094453;28;20619;-91
2022/08/06 09:10:41;;;;;;;10.38;7.07;;;;;;;34.57;34.37;98849.28;5094658;28;20184;-92
2022/08/06 09:13:07;;;;;;;9.45;6.40;;;;;;;32.80;34.01;98589.59;5093265;28;20172;-90
2022/08/06 09:15:32;;;;;;;7.53;6.82;;;;;;;33.35;34.18;98602.06;5093460;28;20654;-91
2022/08/06 09:17:58;;;;;;;7.45;6.75;;;;;;;32.17;34.30;98433.50;5092248;28;20203;-92
2022/08/06 09:20:23;;;;;;;7.38;6.68;;;;;;;33.57;33.87;98597.19;5098764;28;20179;-93
2022/08/06 09:22:52;;;;;;;8.13;7.38;;;;;;;35.09;33.59;98836.28;5097632;28;20176;-91
2022/08/06 09:25:39;;;;;;;7.57;6.70;;;;;;;34.80;32.97;98739.97;5114244;28;20175;-92
2022/08/06 09:28:35;;;;;;;8.35;6.88;;;;;;;33.64;33.36;98540.72;5096536;28;20179;-92
2022/08/06 09:31:09;;;;;;;7.65;6.95;;;;;;;33.99;33.48;98656.66;5095339;28;20583;-92
2022/08/06 09:33:37;;;;;;;9.75;7.30;;;;;;;34.52;33.39;98790.00;5095333;28;20654;-90
2022/08/06 09:36:06;;;;;;;8.75;7.85;;;;;;;33.45;33.37;98542.78;5096297;28;20232;-93
2022/08/06 09:38:44;;;;;;;9.13;7.10;;;;;;;34.00;33.53;98585.66;5096410;28;20195;-93
2022/08/06 09:41:11;;;;;;;12.35;7.82;;;;;;;34.64;32.77;98663.81;5096626;28;20201;-91
2022/08/06 09:43:38;;;;;;;7.68;6.90;;;;;;;33.22;32.63;98450.59;5100811;28;20203;-92
2022/08/06 09:46:05;;;;;;;8.75;6.93;;;;;;;34.63;32.73;98654.28;5097287;28;20170;-91
2022/08/06 09:48:31;;;;;;;7.05;6.35;;;;;;;34.18;33.10;98650.19;5099440;28;20570;-92
2022/08/06 09:50:57;;;;;;;8.32;6.70;;;;;;;34.35;32.99;98644.69;5097598;28;20201;-92
2022/08/06 09:53:24;;;;;;;7.07;6.47;;;;;;;34.47;32.61;98571.22;5096554;28;20188;-91
2022/08/06 09:55:51;;;;;;;7.15;6.55;;;;;;;33.33;32.68;98391.31;5096921;28;20168;-93
2022/08/06 09:58:29;;;;;;;8.73;6.60;;;;;;;34.63;32.24;98561.38;5096659;28;20237;-91
2022/08/06 10:00:55;;;;;;;7.78;6.80;;;;;;;35.83;31.25;98736.44;5094830;28;20172;-91
2022/08/06 10:03:20;;;;;;;8.80;7.05;;;;;;;34.03;32.21;98385.78;5095560;28;20632;-91
2022/08/06 10:05:46;;;;;;;8.02;6.85;;;;;;;35.31;30.92;98631.22;5095012;28;20229;-92
2022/08/06 10:08:18;;;;;;;7.20;6.50;;;;;;;33.77;31.31;98400.66;5095413;28;20578;-91
2022/08/06 10:10:46;;;;;;;7.75;6.70;;;;;;;35.06;32.26;98693.50;5094527;28;20195;-88
2022/08/06 10:13:17;;;;;;;7.13;6.43;;;;;;;33.45;31.96;98398.41;5095380;28;20201;-91
2022/08/06 10:15:48;;;;;;;9.88;6.90;;;;;;;34.69;32.58;98639.88;5094634;28;20258;-91
2022/08/06 10:18:34;;;;;;;8.90;6.75;;;;;;;36.28;31.69;98808.88;5094902;28;20237;-91
2022/08/06 10:21:08;;;;;;;7.72;6.68;;;;;;;34.51;32.43;98625.25;5064118;28;20191;-91
2022/08/06 10:23:36;;;;;;;7.65;6.95;;;;;;;33.93;32.12;98500.28;5095577;28;20168;-91
2022/08/06 10:26:05;;;;;;;8.57;7.03;;;;;;;35.80;32.18;98806.97;5095390;28;20176;-91
2022/08/06 10:28:33;;;;;;;8.35;7.40;;;;;;;35.50;32.85;98794.06;5096029;28;20172;-90
2022/08/06 10:31:02;;;;;;;8.38;6.93;;;;;;;35.36;32.88;98786.22;5098865;28;20176;-91
2022/08/06 10:33:32;;;;;;;7.78;7.05;;;;;;;33.08;32.50;98337.81;5099433;28;20628;-90
2022/08/06 10:36:07;;;;;;;7.93;7.20;;;;;;;34.51;32.26;98551.63;5095618;28;20235;-91
2022/08/06 10:38:36;;;;;;;8.65;6.80;;;;;;;35.31;31.93;98620.69;5094641;28;20195;-90
2022/08/06 10:41:12;;;;;;;8.02;7.22;;;;;;;36.39;32.02;98782.59;5095302;28;20179;-90
2022/08/06 10:43:40;;;;;;;8.07;7.20;;;;;;;35.31;31.47;98531.16;5094189;28;20171;-90
2022/08/06 10:46:12;;;;;;;9.07;6.80;;;;;;;37.44;30.82;98759.88;5095575;28;20247;-91
2022/08/06 10:48:39;;;;;;;7.38;6.68;;;;;;;34.32;30.44;98313.69;5094470;28;20172;-90
2022/08/06 10:51:07;;;;;;;7.80;6.95;;;;;;;34.42;30.53;98411.97;5100861;28;20176;-90
2022/08/06 10:53:34;;;;;;;7.38;6.78;;;;;;;34.88;31.62;98522.78;5104092;28;20279;-91
2022/08/06 10:56:02;;;;;;;9.30;7.13;;;;;;;36.55;31.75;98770.00;5098109;28;20207;-92
2022/08/06 10:58:30;;;;;;;7.88;7.18;;;;;;;36.32;30.63;98683.75;5098623;28;20627;-90
2022/08/06 11:01:08;;;;;;;7.40;6.50;;;;;;;36.82;30.45;98761.00;5100695;28;20172;-90
2022/08/06 11:03:46;;;;;;;7.97;7.18;;;;;;;36.65;30.79;98776.28;5094633;28;20239;-90
2022/08/06 11:06:32;;;;;;;7.93;7.03;;;;;;;36.13;31.89;98767.75;5097570;28;20176;-90
2022/08/06 11:09:18;;;;;;;9.55;7.22;;;;;;;36.33;32.40;98761.91;5093388;28;20620;-90
2022/08/06 11:12:23;;;;;;;7.60;6.85;;;;;;;36.85;30.74;98755.50;5093282;28;20187;-92
2022/08/06 11:14:50;;;;;;;8.60;7.70;;;;;;;36.09;31.90;98676.66;5032097;28;20213;-89
2022/08/06 11:17:16;;;;;;;8.00;7.20;;;;;;;34.97;31.87;98523.91;5015697;28;20776;-89
2022/08/06 11:19:46;;;;;;;8.27;7.57;;;;;;;36.33;31.71;98750.53;5032062;28;20285;-90
2022/08/06 11:22:35;;;;;;;8.43;7.47;;;;;;;36.01;32.00;98747.50;5015173;28;20244;-91
2022/08/06 11:25:02;;;;;;;9.98;7.60;;;;;;;35.34;33.05;98683.66;5015282;28;20194;-91
2022/08/06 11:27:48;;;;;;;8.20;7.10;;;;;;;35.88;32.75;98752.78;5032392;28;20184;-91
2022/08/06 11:30:14;;;;;;;8.07;7.38;;;;;;;36.17;32.12;98758.69;5031941;28;20269;-91
2022/08/06 11:32:51;;;;;;;9.10;7.60;;;;;;;35.89;32.79;98758.91;5031077;28;20217;-90
2022/08/06 11:35:35;;;;;;;8.10;7.35;;;;;;;35.81;32.39;98755.97;5015479;28;20297;-91
2022/08/06 11:38:03;;;;;;;9.02;8.20;;;;;;;35.37;33.29;98715.06;5031803;28;20443;-90
2022/08/06 11:41:07;;;;;;;9.50;7.72;;;;;;;33.91;32.90;98431.25;5014663;28;20216;-90